Time;durP1;ratioP1;P1;durP2;ratioP2;P2;SDS_P1;SDS_P2;PMS_P1;PMS_P2;Temp;Humidity;BMP_temperature;BMP_pressure;BME280_temperature;BME280_humidity;BME280_pressure;Samples;Min_cycle;Max_cycle;Signal;HPM_P1;HPM_P2
2021/01/17 00:01:44;;;;;;;24.17;16.70;;;0.20;97.60;;;;;;6226267;28;20917;-66
2021/01/17 00:04:47;;;;;;;26.27;18.20;;;0.20;97.70;;;;;;6225648;28;20506;-65
2021/01/17 00:07:50;;;;;;;25.40;19.57;;;0.10;97.70;;;;;;6225276;28;20468;-70
2021/01/17 00:10:53;;;;;;;26.63;20.00;;;0.10;97.60;;;;;;6225474;28;20479;-58
2021/01/17 00:13:55;;;;;;;27.47;18.93;;;0.00;97.80;;;;;;6225405;28;20487;-58
2021/01/17 00:16:57;;;;;;;28.73;18.20;;;0.00;97.90;;;;;;6225445;28;20476;-58
2021/01/17 00:20:07;;;;;;;29.50;19.17;;;-0.10;98.10;;;;;;6225638;28;20472;-58
2021/01/17 00:23:12;;;;;;;27.67;20.13;;;-0.20;98.40;;;;;;6225260;28;20844;-58
2021/01/17 00:26:14;;;;;;;26.77;18.60;;;-0.10;98.50;;;;;;6225238;28;20538;-58
2021/01/17 00:29:16;;;;;;;27.13;18.83;;;-0.20;98.40;;;;;;6224938;28;20475;-58
2021/01/17 00:32:18;;;;;;;23.90;18.33;;;-0.10;98.60;;;;;;6225402;28;20505;-59
2021/01/17 00:35:23;;;;;;;26.80;18.37;;;-0.10;98.60;;;;;;6224626;28;20491;-58
2021/01/17 00:38:27;;;;;;;25.57;17.90;;;-0.10;98.60;;;;;;6225007;28;20480;-58
2021/01/17 00:41:32;;;;;;;30.23;18.87;;;-0.10;98.50;;;;;;6224778;28;20506;-58
2021/01/17 00:44:34;;;;;;;26.17;17.90;;;0.00;98.60;;;;;;6225001;28;20978;-54
2021/01/17 00:47:37;;;;;;;25.80;17.40;;;0.00;98.60;;;;;;6224722;28;20968;-54
2021/01/17 00:50:40;;;;;;;28.27;17.40;;;-0.10;98.20;;;;;;6223144;28;20547;-56
2021/01/17 00:53:42;;;;;;;30.27;19.13;;;-0.10;98.20;;;;;;6220713;28;20483;-55
2021/01/17 00:56:45;;;;;;;26.73;18.80;;;-0.10;98.10;;;;;;6220827;28;20605;-55
2021/01/17 00:59:47;;;;;;;23.97;18.07;;;-0.20;98.10;;;;;;6221143;28;20472;-58
2021/01/17 01:02:49;;;;;;;25.30;17.60;;;-0.10;98.10;;;;;;6211941;28;21066;-58
2021/01/17 01:05:55;;;;;;;21.47;15.70;;;-0.20;98.00;;;;;;6222081;28;20541;-59
2021/01/17 01:08:57;;;;;;;20.20;15.50;;;-0.30;98.10;;;;;;6224236;28;20483;-59
2021/01/17 01:12:00;;;;;;;25.43;17.83;;;-0.30;98.10;;;;;;6225022;28;20445;-60
2021/01/17 01:15:03;;;;;;;29.30;18.53;;;-0.30;98.40;;;;;;6223315;28;20448;-57
2021/01/17 01:18:05;;;;;;;22.53;17.57;;;-0.30;99.50;;;;;;6224823;28;20501;-59
2021/01/17 01:21:08;;;;;;;25.73;17.40;;;-0.20;99.00;;;;;;6224419;28;20787;-58
2021/01/17 01:24:10;;;;;;;24.57;17.50;;;-0.20;98.60;;;;;;6224502;28;20467;-57
2021/01/17 01:27:13;;;;;;;30.40;18.87;;;-0.20;98.50;;;;;;6224564;28;20478;-57
2021/01/17 01:30:16;;;;;;;27.23;16.93;;;-0.20;99.30;;;;;;6223197;28;20467;-57
2021/01/17 01:33:18;;;;;;;24.87;17.30;;;-0.10;99.30;;;;;;6222657;28;20472;-56
2021/01/17 01:36:23;;;;;;;26.93;16.63;;;-0.10;99.00;;;;;;6222137;28;20484;-57
2021/01/17 01:39:25;;;;;;;25.57;16.27;;;0.10;98.70;;;;;;6222302;28;20468;-57
2021/01/17 01:42:28;;;;;;;26.53;17.57;;;0.10;98.20;;;;;;6222708;28;20472;-57
2021/01/17 01:45:30;;;;;;;23.87;16.10;;;0.20;97.90;;;;;;6219272;28;20469;-57
2021/01/17 01:48:35;;;;;;;21.97;16.50;;;0.20;97.80;;;;;;6204601;28;20615;-57
2021/01/17 01:51:39;;;;;;;24.20;16.63;;;0.20;97.70;;;;;;6204395;28;20484;-57
2021/01/17 01:54:41;;;;;;;20.20;14.23;;;0.10;97.60;;;;;;6208810;28;20863;-58
2021/01/17 01:57:44;;;;;;;23.20;17.10;;;0.10;97.80;;;;;;6214154;28;20477;-58
2021/01/17 02:00:47;;;;;;;24.47;17.90;;;0.20;97.60;;;;;;6215492;28;20811;-59
2021/01/17 02:03:50;;;;;;;21.37;16.90;;;0.00;97.50;;;;;;6208872;28;20961;-59
2021/01/17 02:07:15;;;;;;;24.87;17.50;;;-0.10;97.70;;;;;;6214960;28;21055;-65
2021/01/17 02:10:17;;;;;;;24.53;17.50;;;-0.20;97.50;;;;;;6213953;28;20488;-64
2021/01/17 02:13:30;;;;;;;25.50;16.10;;;-0.30;97.70;;;;;;6208539;28;20784;-65
2021/01/17 02:16:34;;;;;;;28.07;17.33;;;-0.20;97.60;;;;;;6214473;28;20865;-58
2021/01/17 02:19:47;;;;;;;25.40;17.53;;;-0.30;97.50;;;;;;6216539;28;20479;-58
2021/01/17 02:23:04;;;;;;;23.47;16.40;;;-0.30;97.80;;;;;;6211825;28;20466;-55
2021/01/17 02:26:08;;;;;;;26.90;17.93;;;-0.30;97.90;;;;;;6211719;28;20959;-55
2021/01/17 02:29:13;;;;;;;22.97;15.93;;;-0.20;97.80;;;;;;6210000;28;20477;-55
2021/01/17 02:32:18;;;;;;;21.60;16.33;;;-0.30;97.60;;;;;;6203954;28;20481;-59
2021/01/17 02:35:23;;;;;;;24.87;16.67;;;-0.30;97.60;;;;;;6203354;28;20492;-65
2021/01/17 02:38:39;;;;;;;23.87;16.27;;;-0.30;97.50;;;;;;6203445;28;20487;-66
2021/01/17 02:41:56;;;;;;;22.87;15.90;;;-0.40;97.50;;;;;;6203477;28;20522;-65
2021/01/17 02:44:59;;;;;;;26.27;17.80;;;-0.30;97.40;;;;;;6204138;28;20446;-65
2021/01/17 02:48:02;;;;;;;25.60;17.40;;;-0.40;97.20;;;;;;6203430;28;20468;-65
2021/01/17 02:51:04;;;;;;;23.47;16.87;;;-0.40;97.50;;;;;;6203319;28;20477;-65
2021/01/17 02:54:10;;;;;;;26.47;15.90;;;-0.30;97.50;;;;;;6203261;28;20445;-65
2021/01/17 02:57:14;;;;;;;26.50;16.73;;;-0.30;97.30;;;;;;6203263;28;20461;-65
2021/01/17 03:00:19;;;;;;;24.10;17.70;;;-0.40;97.50;;;;;;6203278;28;20599;-65
2021/01/17 03:03:26;;;;;;;26.73;16.40;;;-0.40;97.30;;;;;;6202852;28;20483;-65
2021/01/17 03:06:30;;;;;;;24.63;17.13;;;-0.40;97.30;;;;;;6203082;28;20512;-65
2021/01/17 03:09:34;;;;;;;23.90;18.70;;;-0.40;97.30;;;;;;6202764;28;20473;-65
2021/01/17 03:12:39;;;;;;;29.40;20.23;;;-0.30;97.10;;;;;;6203042;28;20477;-65
2021/01/17 03:15:41;;;;;;;24.43;16.57;;;-0.30;96.90;;;;;;6203052;28;20481;-66
2021/01/17 03:18:44;;;;;;;26.20;17.27;;;-0.40;96.80;;;;;;6202416;28;20488;-65
2021/01/17 03:21:46;;;;;;;25.80;16.97;;;-0.30;96.80;;;;;;6207673;28;20463;-65
2021/01/17 03:24:49;;;;;;;27.13;19.13;;;-0.30;96.80;;;;;;6202814;28;20499;-63
2021/01/17 03:27:52;;;;;;;24.70;17.30;;;-0.20;96.90;;;;;;6202633;28;20485;-65
2021/01/17 03:30:54;;;;;;;22.57;16.00;;;-0.10;96.60;;;;;;6202429;28;20633;-65
2021/01/17 03:33:59;;;;;;;25.50;16.50;;;-0.10;96.40;;;;;;6202106;28;20925;-66
2021/01/17 03:37:01;;;;;;;28.77;18.20;;;-0.30;96.30;;;;;;6201951;28;20487;-65
2021/01/17 03:40:04;;;;;;;25.30;16.70;;;-0.40;96.70;;;;;;6202073;28;20477;-65
2021/01/17 03:43:07;;;;;;;25.63;19.27;;;-0.40;96.70;;;;;;6202218;28;20535;-65
2021/01/17 03:46:10;;;;;;;31.67;17.83;;;-0.30;96.60;;;;;;6202175;28;20479;-65
2021/01/17 03:49:12;;;;;;;24.53;17.43;;;-0.30;96.60;;;;;;6202098;28;20481;-65
2021/01/17 03:52:14;;;;;;;25.67;17.53;;;-0.30;96.60;;;;;;6201754;28;20481;-65
2021/01/17 03:55:16;;;;;;;25.87;19.27;;;-0.20;96.90;;;;;;6201475;28;20469;-65
2021/01/17 03:58:19;;;;;;;24.27;17.60;;;-0.20;96.90;;;;;;6202000;28;20477;-62
2021/01/17 04:01:22;;;;;;;26.07;18.17;;;-0.20;96.60;;;;;;6201676;28;20547;-63
2021/01/17 04:04:24;;;;;;;29.90;17.63;;;-0.20;96.80;;;;;;6201432;28;20968;-63
2021/01/17 04:07:28;;;;;;;26.00;17.23;;;-0.20;96.70;;;;;;6201265;28;20476;-64
2021/01/17 04:10:30;;;;;;;28.07;17.97;;;-0.20;96.40;;;;;;6201467;28;20485;-65
2021/01/17 04:13:33;;;;;;;26.03;17.67;;;-0.20;96.30;;;;;;6192685;28;20475;-64
2021/01/17 04:16:35;;;;;;;27.00;17.33;;;-0.20;96.10;;;;;;6201271;28;20477;-64
2021/01/17 04:19:38;;;;;;;25.67;17.67;;;-0.20;95.90;;;;;;6201166;28;20468;-65
2021/01/17 04:22:40;;;;;;;29.00;18.57;;;-0.20;95.90;;;;;;6201550;28;20472;-64
2021/01/17 04:25:42;;;;;;;28.27;17.83;;;-0.30;96.00;;;;;;6201824;28;20472;-64
2021/01/17 04:28:46;;;;;;;26.43;18.77;;;-0.40;96.10;;;;;;6201100;28;20829;-64
2021/01/17 04:31:48;;;;;;;28.63;17.37;;;-0.40;95.90;;;;;;6201546;28;20469;-65
2021/01/17 04:34:51;;;;;;;25.30;17.40;;;-0.50;96.00;;;;;;6200692;28;20488;-63
2021/01/17 04:37:56;;;;;;;24.33;15.90;;;-0.50;96.30;;;;;;6201201;28;20817;-64
2021/01/17 04:41:02;;;;;;;27.03;18.33;;;-0.40;96.50;;;;;;6200959;28;20461;-64
2021/01/17 04:44:08;;;;;;;26.03;17.53;;;-0.60;96.50;;;;;;6201046;28;20487;-64
2021/01/17 04:47:12;;;;;;;26.70;17.53;;;-0.70;96.70;;;;;;6200951;28;20473;-63
2021/01/17 04:50:17;;;;;;;29.77;19.77;;;-0.60;96.70;;;;;;6200817;28;20570;-64
2021/01/17 04:53:21;;;;;;;26.63;18.90;;;-0.60;96.60;;;;;;6200748;28;20491;-63
2021/01/17 04:56:25;;;;;;;28.07;17.90;;;-0.50;96.70;;;;;;6200630;28;20477;-64
2021/01/17 04:59:36;;;;;;;28.10;20.00;;;-0.50;96.60;;;;;;6200683;28;20473;-64
2021/01/17 05:02:44;;;;;;;27.13;18.07;;;-0.40;96.40;;;;;;6201232;28;20481;-64
2021/01/17 05:06:05;;;;;;;26.47;18.40;;;-0.40;96.60;;;;;;6200576;28;20817;-64
2021/01/17 05:09:07;;;;;;;25.50;16.60;;;-0.40;96.60;;;;;;6200663;28;20457;-64
2021/01/17 05:12:13;;;;;;;27.83;17.60;;;-0.50;96.70;;;;;;6200862;28;20480;-64
2021/01/17 05:15:20;;;;;;;28.33;18.20;;;-0.60;96.70;;;;;;6195967;28;20461;-65
2021/01/17 05:18:24;;;;;;;28.30;16.93;;;-0.80;97.10;;;;;;6200482;28;20483;-65
2021/01/17 05:21:27;;;;;;;25.00;15.97;;;-0.70;97.20;;;;;;6202632;28;20479;-64
2021/01/17 05:24:31;;;;;;;29.57;19.30;;;-0.80;96.90;;;;;;6205473;28;20484;-65
2021/01/17 05:27:35;;;;;;;26.17;18.07;;;-0.70;97.00;;;;;;6204957;28;20530;-65
2021/01/17 05:30:43;;;;;;;21.17;15.77;;;-0.80;97.00;;;;;;6205177;28;20473;-64
2021/01/17 05:33:45;;;;;;;26.40;18.27;;;-0.80;97.00;;;;;;6205116;28;20528;-64
2021/01/17 05:37:00;;;;;;;31.63;19.77;;;-0.90;97.40;;;;;;6204745;28;20477;-63
2021/01/17 05:40:05;;;;;;;26.40;16.40;;;-0.80;97.50;;;;;;6204616;28;20788;-64
2021/01/17 05:43:09;;;;;;;23.70;17.50;;;-0.70;97.50;;;;;;6204818;28;20811;-65
2021/01/17 05:46:12;;;;;;;24.70;16.67;;;-0.70;97.40;;;;;;6205076;28;20473;-65
2021/01/17 05:49:17;;;;;;;29.47;18.40;;;-0.60;97.30;;;;;;6204489;28;20986;-65
2021/01/17 05:52:20;;;;;;;32.87;19.10;;;-0.60;96.90;;;;;;6204614;28;20461;-66
2021/01/17 05:55:30;;;;;;;24.87;18.13;;;-0.60;96.90;;;;;;6204571;28;20481;-65
2021/01/17 05:58:33;;;;;;;24.50;17.93;;;-0.60;97.00;;;;;;6204626;28;20531;-65
2021/01/17 06:01:38;;;;;;;27.60;17.23;;;-0.50;96.70;;;;;;6204365;28;20805;-64
2021/01/17 06:04:42;;;;;;;29.03;17.70;;;-0.60;96.70;;;;;;6204396;28;20560;-64
2021/01/17 06:07:49;;;;;;;29.07;19.07;;;-0.60;96.70;;;;;;6204171;28;20499;-65
2021/01/17 06:10:51;;;;;;;28.73;19.00;;;-0.70;96.80;;;;;;6204351;28;21003;-65
2021/01/17 06:13:56;;;;;;;28.53;18.87;;;-0.70;97.10;;;;;;6204565;28;20473;-64
2021/01/17 06:17:00;;;;;;;30.47;18.57;;;-0.70;97.20;;;;;;6204423;28;20465;-64
2021/01/17 06:20:08;;;;;;;21.97;15.63;;;-0.60;97.10;;;;;;6203705;28;20500;-65
2021/01/17 06:23:10;;;;;;;26.70;18.50;;;-0.70;97.50;;;;;;6203910;28;20477;-65
2021/01/17 06:26:23;;;;;;;29.53;17.93;;;-0.70;97.10;;;;;;6202875;28;20481;-66
2021/01/17 06:29:36;;;;;;;29.37;18.67;;;-0.70;97.20;;;;;;6203640;28;20584;-66
2021/01/17 06:32:45;;;;;;;31.63;19.87;;;-0.80;97.00;;;;;;6203159;28;20488;-65
2021/01/17 06:35:47;;;;;;;34.40;17.20;;;-0.90;97.10;;;;;;6203432;28;20482;-66
2021/01/17 06:38:50;;;;;;;28.67;18.60;;;-0.90;97.30;;;;;;6203576;28;20488;-65
2021/01/17 06:41:54;;;;;;;25.70;18.60;;;-0.90;97.20;;;;;;6203586;28;20540;-61
2021/01/17 06:44:56;;;;;;;32.13;19.30;;;-0.80;97.10;;;;;;6204033;28;20441;-64
2021/01/17 06:47:59;;;;;;;26.50;19.50;;;-0.90;97.00;;;;;;6203187;28;20470;-63
2021/01/17 06:51:17;;;;;;;26.50;17.57;;;-1.00;97.00;;;;;;6203457;28;20489;-64
2021/01/17 06:54:20;;;;;;;29.07;18.80;;;-1.00;97.10;;;;;;6203650;28;20469;-65
2021/01/17 06:57:22;;;;;;;24.97;17.67;;;-1.00;97.20;;;;;;6203247;28;20464;-65
2021/01/17 07:00:25;;;;;;;25.67;19.60;;;-1.10;97.10;;;;;;6202862;28;20469;-66
2021/01/17 07:03:41;;;;;;;25.33;17.97;;;-1.30;97.30;;;;;;6202739;28;20587;-64
2021/01/17 07:07:16;;;;;;;28.73;18.13;;;-1.30;97.50;;;;;;6202987;28;20776;-55
2021/01/17 07:10:21;;;;;;;29.80;19.07;;;-1.20;97.50;;;;;;6202794;28;20477;-55
2021/01/17 07:13:33;;;;;;;26.43;17.23;;;-1.20;97.30;;;;;;6203090;28;20473;-59
2021/01/17 07:16:36;;;;;;;28.57;18.43;;;-1.30;97.50;;;;;;6203472;28;20468;-60
2021/01/17 07:19:47;;;;;;;26.73;18.50;;;-1.50;97.70;;;;;;6202891;28;20476;-59
2021/01/17 07:22:52;;;;;;;28.13;18.03;;;-1.40;98.10;;;;;;6202656;28;20473;-57
2021/01/17 07:26:00;;;;;;;32.17;20.07;;;-1.30;97.80;;;;;;6193269;28;20477;-55
2021/01/17 07:29:03;;;;;;;29.13;19.10;;;-1.10;97.50;;;;;;6202372;28;20485;-58
2021/01/17 07:32:29;;;;;;;30.67;17.43;;;-1.00;97.10;;;;;;6202248;28;20485;-59
2021/01/17 07:35:39;;;;;;;25.80;17.73;;;-1.00;96.70;;;;;;6202051;28;20481;-58
2021/01/17 07:38:43;;;;;;;26.23;18.83;;;-1.00;96.60;;;;;;6202051;28;20926;-59
2021/01/17 07:41:49;;;;;;;27.40;18.80;;;-0.90;96.60;;;;;;6202061;28;20783;-59
2021/01/17 07:44:55;;;;;;;25.23;17.57;;;-0.70;96.60;;;;;;6201388;28;20485;-59
2021/01/17 07:48:07;;;;;;;26.27;18.93;;;-0.70;96.40;;;;;;6202187;28;20760;-58
2021/01/17 07:51:12;;;;;;;27.20;18.27;;;-0.50;96.20;;;;;;6201631;28;20473;-54
2021/01/17 07:54:23;;;;;;;26.00;16.57;;;-0.50;95.70;;;;;;6202247;28;20493;-55
2021/01/17 07:57:25;;;;;;;30.67;17.67;;;-0.50;95.70;;;;;;6201594;28;20469;-64
2021/01/17 08:00:28;;;;;;;30.23;20.17;;;-0.50;95.70;;;;;;6201688;28;20465;-58
2021/01/17 08:03:30;;;;;;;32.43;20.30;;;-0.60;95.60;;;;;;6201934;28;20483;-59
2021/01/17 08:06:48;;;;;;;27.80;17.60;;;-0.60;95.90;;;;;;6201727;28;20472;-58
2021/01/17 08:09:50;;;;;;;29.30;20.33;;;-0.60;95.80;;;;;;6201443;28;20473;-64
2021/01/17 08:12:53;;;;;;;29.17;19.03;;;-0.50;95.90;;;;;;6201609;28;20488;-54
2021/01/17 08:16:08;;;;;;;29.00;18.80;;;-0.50;95.80;;;;;;6201119;28;20555;-55
2021/01/17 08:19:11;;;;;;;32.80;18.10;;;-0.40;95.90;;;;;;6201312;28;20484;-58
2021/01/17 08:22:42;;;;;;;29.00;19.43;;;-0.30;95.80;;;;;;6201162;28;20487;-58
2021/01/17 08:25:49;;;;;;;25.23;17.80;;;-0.30;95.70;;;;;;6156685;28;20817;-57
2021/01/17 08:29:00;;;;;;;27.43;18.00;;;-0.20;95.60;;;;;;6196394;28;20561;-54
2021/01/17 08:32:29;;;;;;;33.47;20.90;;;0.00;95.60;;;;;;6200865;28;20489;-58
2021/01/17 08:35:32;;;;;;;31.50;20.70;;;-0.40;95.50;;;;;;6201011;28;20494;-65
2021/01/17 08:38:36;;;;;;;32.00;20.33;;;-0.30;96.10;;;;;;6200885;28;20547;-65
2021/01/17 08:41:40;;;;;;;32.67;20.97;;;-0.30;96.00;;;;;;6200929;28;20789;-65
2021/01/17 08:44:42;;;;;;;31.20;19.80;;;-0.30;95.50;;;;;;6200887;28;20505;-54
2021/01/17 08:47:48;;;;;;;25.97;17.13;;;-0.30;95.90;;;;;;6200468;28;20557;-54
2021/01/17 08:50:52;;;;;;;29.37;18.23;;;-0.20;95.40;;;;;;6200630;28;20511;-54
2021/01/17 08:53:56;;;;;;;26.40;18.30;;;-0.10;95.40;;;;;;6200718;28;20461;-57
2021/01/17 08:56:58;;;;;;;30.20;18.73;;;-0.10;95.10;;;;;;6206046;28;20449;-58
2021/01/17 09:00:00;;;;;;;24.23;19.13;;;-0.10;95.20;;;;;;6205552;28;20484;-55
2021/01/17 09:03:24;;;;;;;31.60;18.27;;;-0.10;95.10;;;;;;6205639;28;20459;-55
2021/01/17 09:06:44;;;;;;;29.83;19.43;;;-0.10;95.20;;;;;;6205520;28;20468;-54
2021/01/17 09:10:04;;;;;;;33.50;19.33;;;-0.20;95.20;;;;;;6205300;28;20564;-54
2021/01/17 09:13:06;;;;;;;28.37;17.73;;;0.00;95.10;;;;;;6205721;28;20799;-65
2021/01/17 09:16:09;;;;;;;29.07;18.63;;;0.00;94.90;;;;;;6205434;28;20484;-57
2021/01/17 09:19:12;;;;;;;30.10;19.97;;;0.10;94.90;;;;;;6205400;28;20647;-63
2021/01/17 09:22:17;;;;;;;28.70;19.07;;;0.20;94.40;;;;;;6205139;28;20472;-59
2021/01/17 09:25:24;;;;;;;28.30;17.97;;;0.20;94.40;;;;;;6209130;28;20834;-58
2021/01/17 09:28:27;;;;;;;27.97;18.90;;;0.20;94.50;;;;;;6218279;28;20464;-59
2021/01/17 09:31:32;;;;;;;28.47;16.90;;;0.30;94.40;;;;;;6216450;28;20481;-59
2021/01/17 09:34:36;;;;;;;28.90;19.53;;;0.50;94.20;;;;;;6211842;28;20476;-60
2021/01/17 09:37:41;;;;;;;27.30;19.10;;;0.60;93.90;;;;;;6217506;28;20548;-59
2021/01/17 09:40:45;;;;;;;30.00;17.13;;;0.70;93.70;;;;;;6215024;28;20974;-58
2021/01/17 09:43:49;;;;;;;25.63;19.43;;;0.70;93.60;;;;;;6218314;28;20495;-58
2021/01/17 09:46:56;;;;;;;26.10;17.80;;;1.00;93.40;;;;;;6227884;28;20549;-59
2021/01/17 09:50:06;;;;;;;30.57;20.80;;;1.30;92.70;;;;;;6211294;28;20582;-59
2021/01/17 09:53:10;;;;;;;34.97;20.40;;;1.60;92.30;;;;;;6225492;28;20496;-59
2021/01/17 09:56:13;;;;;;;30.20;21.93;;;2.10;91.40;;;;;;6228611;28;20483;-58
2021/01/17 09:59:21;;;;;;;28.00;19.97;;;2.50;90.30;;;;;;6228137;28;20472;-59
2021/01/17 10:02:25;;;;;;;31.67;20.97;;;2.70;89.90;;;;;;6208310;28;20476;-62
2021/01/17 10:05:29;;;;;;;26.07;18.97;;;2.90;89.00;;;;;;6204165;28;20815;-58
2021/01/17 10:08:31;;;;;;;33.40;20.07;;;3.00;86.60;;;;;;6227429;28;20522;-58
2021/01/17 10:11:35;;;;;;;28.60;18.70;;;3.10;86.80;;;;;;6228537;28;20558;-60
2021/01/17 10:14:38;;;;;;;34.73;21.47;;;3.10;85.50;;;;;;6224964;28;20473;-58
2021/01/17 10:17:45;;;;;;;26.10;17.47;;;2.80;86.40;;;;;;6203831;28;20477;-58
2021/01/17 10:20:53;;;;;;;30.97;22.60;;;2.30;86.70;;;;;;6203617;28;20465;-58
2021/01/17 10:23:55;;;;;;;31.50;18.63;;;1.70;89.80;;;;;;6215677;28;20457;-58
2021/01/17 10:27:00;;;;;;;22.80;18.17;;;2.10;90.10;;;;;;6228055;28;20440;-57
2021/01/17 10:30:03;;;;;;;28.63;19.50;;;2.30;89.20;;;;;;6228182;28;20464;-59
2021/01/17 10:33:08;;;;;;;31.93;20.20;;;2.70;88.20;;;;;;6227527;28;20956;-63
2021/01/17 10:36:11;;;;;;;31.50;20.13;;;3.30;86.80;;;;;;6218377;28;20559;-62
2021/01/17 10:39:19;;;;;;;29.90;21.50;;;3.40;85.20;;;;;;6227378;28;20543;-63
2021/01/17 10:42:30;;;;;;;32.43;21.00;;;3.80;84.50;;;;;;6228330;28;20464;-63
2021/01/17 10:45:33;;;;;;;30.17;20.87;;;4.30;81.70;;;;;;6227257;28;20487;-63
2021/01/17 10:48:45;;;;;;;31.10;22.03;;;4.60;79.80;;;;;;6227108;28;20952;-63
2021/01/17 10:51:51;;;;;;;29.73;20.80;;;4.50;79.30;;;;;;6227136;28;20464;-62
2021/01/17 10:54:54;;;;;;;34.63;22.90;;;4.30;79.00;;;;;;6227526;28;20476;-63
2021/01/17 10:57:58;;;;;;;29.63;20.30;;;4.20;79.40;;;;;;6220938;28;20473;-61
2021/01/17 11:01:01;;;;;;;28.20;20.67;;;4.10;79.30;;;;;;6203733;28;20481;-60
2021/01/17 11:04:04;;;;;;;28.37;20.10;;;3.80;79.80;;;;;;6205586;28;20464;-60
2021/01/17 11:07:07;;;;;;;33.70;21.67;;;3.80;80.70;;;;;;6215802;28;20479;-60
2021/01/17 11:10:14;;;;;;;24.03;20.00;;;4.50;80.00;;;;;;6215688;28;20474;-60
2021/01/17 11:13:17;;;;;;;31.67;19.30;;;4.90;76.80;;;;;;6213925;28;20956;-60
2021/01/17 11:16:33;;;;;;;30.60;20.60;;;4.70;76.10;;;;;;6213046;28;20783;-61
2021/01/17 11:19:38;;;;;;;30.70;21.60;;;4.60;77.10;;;;;;6210382;28;20469;-61
2021/01/17 11:22:41;;;;;;;30.97;23.03;;;5.30;77.40;;;;;;6213511;28;20611;-61
2021/01/17 11:25:43;;;;;;;27.73;20.63;;;8.00;71.00;;;;;;6217165;28;20961;-64
2021/01/17 11:28:52;;;;;;;26.27;19.93;;;11.10;59.10;;;;;;6212772;28;20908;-62
2021/01/17 11:31:54;;;;;;;22.23;18.53;;;14.20;50.10;;;;;;6212167;28;20476;-63
2021/01/17 11:34:57;;;;;;;26.70;20.23;;;17.10;40.60;;;;;;6212300;28;20478;-69
2021/01/17 11:37:59;;;;;;;26.63;20.10;;;17.70;35.10;;;;;;6214119;28;20488;-70
2021/01/17 11:41:07;;;;;;;27.60;20.90;;;17.90;32.90;;;;;;6205488;28;20461;-62
2021/01/17 11:44:12;;;;;;;25.10;22.40;;;18.10;32.80;;;;;;6207498;28;20472;-68
2021/01/17 11:47:19;;;;;;;26.83;22.27;;;20.20;31.00;;;;;;6210799;28;20469;-65
2021/01/17 11:50:21;;;;;;;23.53;21.17;;;21.50;27.90;;;;;;6214772;28;20624;-65
2021/01/17 11:53:26;;;;;;;25.63;22.53;;;20.90;27.80;;;;;;6223545;28;20239;-60
2021/01/17 11:56:28;;;;;;;25.37;22.27;;;19.60;28.70;;;;;;6221726;28;20229;-60
2021/01/17 11:59:32;;;;;;;26.40;23.60;;;18.90;28.20;;;;;;6225545;28;20483;-60
2021/01/17 12:02:40;;;;;;;25.70;23.00;;;18.00;29.40;;;;;;6225479;28;20464;-61
2021/01/17 12:05:43;;;;;;;23.93;21.50;;;18.20;29.60;;;;;;6224693;28;20510;-60
2021/01/17 12:08:56;;;;;;;25.80;23.00;;;17.80;29.40;;;;;;6223052;28;20509;-59
2021/01/17 12:12:10;;;;;;;27.63;22.20;;;15.40;31.70;;;;;;6223810;28;20464;-60
2021/01/17 12:15:13;;;;;;;22.40;19.53;;;14.90;32.20;;;;;;6224175;28;20439;-59
2021/01/17 12:18:16;;;;;;;29.57;23.10;;;15.00;33.40;;;;;;6223679;28;20487;-61
2021/01/17 12:21:21;;;;;;;28.10;22.00;;;14.70;32.40;;;;;;6224381;28;20564;-64
2021/01/17 12:24:24;;;;;;;26.50;21.23;;;13.30;35.00;;;;;;6226042;28;20483;-59
2021/01/17 12:27:26;;;;;;;23.87;20.53;;;13.30;35.00;;;;;;6222971;28;21156;-59
2021/01/17 12:30:29;;;;;;;28.43;21.97;;;12.30;36.10;;;;;;6223061;28;20472;-59
2021/01/17 12:33:32;;;;;;;26.70;21.57;;;11.40;37.50;;;;;;6222763;28;20476;-59
2021/01/17 12:36:35;;;;;;;23.80;19.80;;;9.60;40.70;;;;;;6223334;28;20964;-59
2021/01/17 12:39:38;;;;;;;27.40;22.30;;;10.30;42.30;;;;;;6224319;28;20483;-60
2021/01/17 12:42:44;;;;;;;25.33;20.70;;;13.10;38.70;;;;;;6220509;28;20476;-60
2021/01/17 12:45:47;;;;;;;23.10;19.93;;;15.70;34.60;;;;;;6225434;28;20476;-60
2021/01/17 12:48:49;;;;;;;24.50;19.80;;;18.00;31.30;;;;;;6224520;28;20565;-60
2021/01/17 12:51:52;;;;;;;21.30;18.30;;;18.80;29.60;;;;;;6218545;28;20472;-59
2021/01/17 12:54:54;;;;;;;24.00;21.00;;;19.80;28.40;;;;;;6223873;28;20486;-60
2021/01/17 12:57:56;;;;;;;20.70;18.60;;;20.90;27.30;;;;;;6224850;28;20494;-60
2021/01/17 13:00:59;;;;;;;21.83;19.40;;;21.20;26.90;;;;;;6225069;28;20475;-60
2021/01/17 13:04:01;;;;;;;21.30;19.23;;;22.30;26.10;;;;;;6225326;28;20228;-60
2021/01/17 13:07:04;;;;;;;21.97;19.73;;;23.20;25.10;;;;;;6224912;28;20298;-60
2021/01/17 13:10:08;;;;;;;22.10;19.77;;;23.30;24.80;;;;;;6224832;28;20244;-60
2021/01/17 13:13:11;;;;;;;22.73;20.43;;;23.40;24.40;;;;;;6224420;28;20689;-60
2021/01/17 13:16:16;;;;;;;22.93;20.37;;;22.50;24.30;;;;;;6224394;28;20247;-60
2021/01/17 13:19:19;;;;;;;22.00;19.60;;;21.40;25.10;;;;;;6224772;28;20229;-59
2021/01/17 13:22:27;;;;;;;27.00;21.50;;;20.60;25.50;;;;;;6225175;28;20224;-60
2021/01/17 13:25:29;;;;;;;23.60;21.20;;;20.60;26.40;;;;;;6224795;28;20225;-59
2021/01/17 13:28:31;;;;;;;21.83;19.53;;;20.60;26.10;;;;;;6224730;28;20472;-60
2021/01/17 13:31:36;;;;;;;23.13;20.90;;;20.70;25.80;;;;;;6224645;28;20507;-57
2021/01/17 13:34:39;;;;;;;21.93;19.30;;;20.30;25.90;;;;;;6224840;28;20240;-58
2021/01/17 13:37:41;;;;;;;21.87;19.47;;;20.20;25.90;;;;;;6224272;28;20476;-58
2021/01/17 13:40:44;;;;;;;23.53;19.30;;;18.80;26.50;;;;;;6224409;28;20821;-58
2021/01/17 13:43:46;;;;;;;20.17;18.07;;;18.20;27.30;;;;;;6228811;28;20468;-58
2021/01/17 13:46:51;;;;;;;22.77;19.83;;;17.00;27.80;;;;;;6224368;28;20472;-58
2021/01/17 13:49:54;;;;;;;22.90;18.57;;;16.30;29.00;;;;;;6228639;28;20498;-58
2021/01/17 13:52:57;;;;;;;20.17;17.90;;;15.90;29.30;;;;;;6228321;28;20583;-58
2021/01/17 13:55:59;;;;;;;22.93;18.90;;;16.10;29.70;;;;;;6228532;28;20486;-58
2021/01/17 13:59:01;;;;;;;26.03;20.47;;;15.10;29.90;;;;;;6228576;28;20486;-59
2021/01/17 14:02:05;;;;;;;24.90;19.73;;;13.10;32.40;;;;;;6228575;28;20537;-58
2021/01/17 14:05:08;;;;;;;21.07;18.20;;;12.80;34.40;;;;;;6228384;28;20615;-58
2021/01/17 14:08:11;;;;;;;25.80;20.03;;;12.20;35.20;;;;;;6228193;28;20491;-58
2021/01/17 14:11:13;;;;;;;24.10;17.93;;;12.60;34.90;;;;;;6228087;28;20491;-59
2021/01/17 14:14:15;;;;;;;36.83;27.80;;;12.40;34.90;;;;;;6228842;28;20467;-58
2021/01/17 14:17:21;;;;;;;23.00;19.07;;;12.90;34.70;;;;;;6228457;28;20475;-58
2021/01/17 14:20:25;;;;;;;20.90;17.43;;;12.70;34.70;;;;;;6228298;28;20476;-59
2021/01/17 14:23:28;;;;;;;21.53;18.07;;;12.10;35.10;;;;;;6227741;28;20472;-58
2021/01/17 14:26:31;;;;;;;22.10;16.80;;;11.20;36.70;;;;;;6227895;28;20562;-58
2021/01/17 14:29:33;;;;;;;26.20;18.63;;;9.70;39.50;;;;;;6228181;28;20486;-58
2021/01/17 14:32:37;;;;;;;27.43;18.70;;;8.40;42.00;;;;;;6227633;28;20476;-59
2021/01/17 14:35:40;;;;;;;28.07;20.20;;;7.80;43.70;;;;;;6227718;28;20494;-59
2021/01/17 14:38:44;;;;;;;29.10;21.27;;;7.20;45.70;;;;;;6227497;28;20476;-58
2021/01/17 14:41:48;;;;;;;26.77;20.73;;;6.70;47.00;;;;;;6227801;28;20482;-57
2021/01/17 14:44:51;;;;;;;23.90;18.13;;;6.20;48.90;;;;;;6227412;28;20499;-58
2021/01/17 14:47:54;;;;;;;28.17;18.93;;;5.30;50.30;;;;;;6227152;28;20484;-57
2021/01/17 14:50:56;;;;;;;24.70;19.00;;;4.40;53.10;;;;;;6219948;28;20473;-57
2021/01/17 14:53:58;;;;;;;30.40;18.97;;;3.40;56.00;;;;;;6226914;28;20573;-58
2021/01/17 14:57:01;;;;;;;31.00;19.30;;;3.00;58.40;;;;;;6226776;28;20774;-58
2021/01/17 15:00:04;;;;;;;33.33;19.90;;;3.00;59.60;;;;;;6226862;28;20939;-59
2021/01/17 15:03:07;;;;;;;25.70;19.10;;;2.90;61.10;;;;;;6227016;28;20912;-61
2021/01/17 15:06:17;;;;;;;26.90;18.30;;;2.90;61.50;;;;;;6227427;28;20527;-58
2021/01/17 15:09:19;;;;;;;26.73;18.20;;;2.70;64.00;;;;;;6227027;28;20469;-58
2021/01/17 15:12:22;;;;;;;28.43;21.30;;;2.50;66.10;;;;;;6226624;28;20470;-59
2021/01/17 15:15:24;;;;;;;25.90;18.33;;;2.40;68.00;;;;;;6226618;28;20479;-58
2021/01/17 15:18:27;;;;;;;25.30;18.50;;;2.50;68.90;;;;;;6226896;28;20814;-57
2021/01/17 15:21:30;;;;;;;24.47;17.77;;;2.50;70.40;;;;;;6226931;28;20622;-57
2021/01/17 15:24:32;;;;;;;25.33;18.20;;;2.50;71.80;;;;;;6226167;28;20850;-59
2021/01/17 15:27:35;;;;;;;26.93;19.00;;;2.40;73.30;;;;;;6226088;28;20499;-58
2021/01/17 15:30:37;;;;;;;24.20;17.50;;;2.40;74.00;;;;;;6225749;28;20486;-59
2021/01/17 15:33:42;;;;;;;24.37;17.80;;;2.40;75.00;;;;;;6225994;28;20487;-59
2021/01/17 15:36:45;;;;;;;26.70;18.77;;;2.40;76.00;;;;;;6225151;28;20500;-59
2021/01/17 15:39:47;;;;;;;31.03;18.93;;;2.30;76.30;;;;;;6225875;28;20475;-57
2021/01/17 15:42:49;;;;;;;29.80;19.20;;;2.20;77.70;;;;;;6225105;28;21003;-58